createdAt,value
2023-05-10T00:00:18.692Z,95807.63
2023-05-10T00:02:47.268Z,95842.97
2023-05-10T00:05:15.042Z,95840.66
2023-05-10T00:07:46.510Z,95839.03
2023-05-10T00:10:14.587Z,95828.78
2023-05-10T00:12:54.189Z,95842.28
2023-05-10T00:15:31.846Z,95782.13
2023-05-10T00:18:12.102Z,95826.06
2023-05-10T00:20:40.015Z,95835.13
2023-05-10T00:23:08.316Z,95819.56
2023-05-10T00:25:43.467Z,95842.44
2023-05-10T00:28:20.303Z,95828.41
2023-05-10T00:30:52.011Z,95838.19
2023-05-10T00:33:30.839Z,95835.81
2023-05-10T00:35:59.078Z,95838.25
2023-05-10T00:38:29.307Z,95838.97
2023-05-10T00:40:58.136Z,95840.28
2023-05-10T00:43:29.391Z,95848.94
2023-05-10T00:46:05.547Z,95842.78
2023-05-10T00:48:34.604Z,95838.44
2023-05-10T00:51:05.624Z,95850.00
2023-05-10T00:53:34.431Z,95851.47
2023-05-10T00:56:05.618Z,95859.19
2023-05-10T00:58:36.649Z,95863.13
2023-05-10T01:01:08.328Z,95858.75
2023-05-10T01:03:38.600Z,95856.88
2023-05-10T01:06:07.267Z,95871.34
2023-05-10T01:08:35.467Z,95869.09
2023-05-10T01:11:07.842Z,95855.19
2023-05-10T01:13:39.253Z,95867.84
2023-05-10T01:16:09.333Z,95873.47
2023-05-10T01:18:42.301Z,95825.97
2023-05-10T01:21:20.399Z,95869.81
2023-05-10T01:24:06.698Z,95865.50
2023-05-10T01:27:10.767Z,95866.41
2023-05-10T01:30:18.130Z,95864.88
2023-05-10T01:32:52.394Z,95874.53
2023-05-10T01:35:28.754Z,95870.78
2023-05-10T01:38:02.522Z,95855.69
2023-05-10T01:40:48.802Z,95868.38
2023-05-10T01:43:25.468Z,95868.44
2023-05-10T01:46:05.657Z,95881.81
2023-05-10T01:48:40.194Z,95868.53
2023-05-10T01:51:08.302Z,95865.22
2023-05-10T01:53:37.549Z,95878.16
2023-05-10T01:56:10.001Z,95875.41
2023-05-10T01:58:49.418Z,95881.94
2023-05-10T02:01:22.633Z,95894.34
2023-05-10T02:03:55.085Z,95882.22
2023-05-10T02:06:27.674Z,95886.06
2023-05-10T02:08:56.148Z,95909.75
2023-05-10T02:11:31.322Z,95845.56
2023-05-10T02:14:01.732Z,95877.91
2023-05-10T02:16:32.599Z,95880.16
2023-05-10T02:19:04.216Z,95883.03
2023-05-10T02:21:35.661Z,95880.81
2023-05-10T02:24:06.024Z,95880.50
2023-05-10T02:26:34.434Z,95879.84
2023-05-10T02:29:05.688Z,95887.53
2023-05-10T02:31:35.038Z,95892.19
2023-05-10T02:34:12.608Z,95902.34
2023-05-10T02:36:42.810Z,95913.59
2023-05-10T02:39:26.352Z,95914.25
2023-05-10T02:41:56.485Z,95912.66
2023-05-10T02:44:29.304Z,95911.19
2023-05-10T02:47:03.230Z,95915.31
2023-05-10T02:49:42.095Z,95915.84
2023-05-10T02:52:11.594Z,95920.09
2023-05-10T02:54:49.183Z,95918.72
2023-05-10T02:57:19.515Z,95917.97
2023-05-10T02:59:49.096Z,95914.78
2023-05-10T03:02:17.329Z,95907.59
2023-05-10T03:04:49.095Z,95912.09
2023-05-10T03:07:22.650Z,95913.09
2023-05-10T03:09:57.652Z,95921.34
2023-05-10T03:12:35.959Z,95921.84
2023-05-10T03:15:11.224Z,95930.66
2023-05-10T03:17:46.242Z,95926.81
2023-05-10T03:20:23.745Z,95671.13
2023-05-10T03:22:54.716Z,95940.97
2023-05-10T03:25:23.564Z,95935.03
2023-05-10T03:27:54.666Z,95936.78
2023-05-10T03:30:23.130Z,95915.75
2023-05-10T03:32:53.426Z,95940.00
2023-05-10T03:36:20.792Z,95939.59
2023-05-10T03:38:51.040Z,95930.94
2023-05-10T03:41:18.846Z,95934.66
2023-05-10T03:43:48.905Z,95936.75
2023-05-10T03:46:19.393Z,95933.00
2023-05-10T03:48:49.476Z,95936.66
2023-05-10T03:51:18.697Z,95939.59
2023-05-10T03:53:46.706Z,95937.16
2023-05-10T03:56:15.800Z,95950.16
2023-05-10T03:58:46.212Z,95914.78
2023-05-10T04:01:14.742Z,95949.06
2023-05-10T04:03:42.780Z,95938.50
2023-05-10T04:06:15.224Z,95949.75
2023-05-10T04:08:43.473Z,95955.38
2023-05-10T04:11:12.322Z,95911.88
2023-05-10T04:13:45.674Z,95945.50
2023-05-10T04:16:17.504Z,95956.97
2023-05-10T04:18:47.667Z,95951.25
2023-05-10T04:21:20.733Z,95948.69
2023-05-10T04:23:48.532Z,95918.47
2023-05-10T04:26:17.537Z,95963.34
2023-05-10T04:28:48.105Z,95965.22
2023-05-10T04:31:18.753Z,95963.56
2023-05-10T04:33:55.473Z,95962.66
2023-05-10T04:36:26.128Z,95961.41
2023-05-10T04:39:01.228Z,95957.53
2023-05-10T04:41:33.846Z,95912.00
2023-05-10T04:44:03.051Z,95926.69
2023-05-10T04:46:31.624Z,95940.28
2023-05-10T04:48:59.370Z,95956.75
2023-05-10T04:51:28.701Z,95965.22
2023-05-10T04:54:06.226Z,95967.72
2023-05-10T04:56:35.019Z,95969.19
2023-05-10T04:59:04.892Z,95975.72
2023-05-10T05:01:46.183Z,95964.63
2023-05-10T05:04:14.051Z,95972.63
2023-05-10T05:06:42.527Z,95971.47
2023-05-10T05:09:13.725Z,95961.41
2023-05-10T05:11:43.018Z,95961.56
2023-05-10T05:14:13.788Z,95968.94
2023-05-10T05:16:47.118Z,95963.97
2023-05-10T05:19:14.919Z,95975.66
2023-05-10T05:21:43.004Z,95981.19
2023-05-10T05:24:13.700Z,95989.31
2023-05-10T05:26:42.986Z,95988.69
2023-05-10T05:29:15.096Z,95985.13
2023-05-10T05:31:45.803Z,95981.25
2023-05-10T05:34:14.459Z,95994.78
2023-05-10T05:36:44.917Z,95979.31
2023-05-10T05:39:16.189Z,95993.34
2023-05-10T05:41:44.980Z,95965.81
2023-05-10T05:44:15.667Z,95982.31
2023-05-10T05:46:46.261Z,95984.53
2023-05-10T05:49:14.725Z,95989.84
2023-05-10T05:51:51.807Z,95985.72
2023-05-10T05:54:22.577Z,95988.38
2023-05-10T05:56:53.743Z,95977.88
2023-05-10T05:59:24.857Z,96002.41
2023-05-10T06:01:53.541Z,95950.88
2023-05-10T06:04:21.648Z,96009.94
2023-05-10T06:06:52.725Z,96015.72
2023-05-10T06:09:21.718Z,96019.47
2023-05-10T06:11:49.881Z,96016.06
2023-05-10T06:14:22.980Z,96005.69
2023-05-10T06:16:55.558Z,96020.47
2023-05-10T06:19:24.970Z,96021.16
2023-05-10T06:21:53.931Z,96019.78
2023-05-10T06:24:27.567Z,96030.06
2023-05-10T06:27:02.107Z,96016.91
2023-05-10T06:29:30.640Z,96012.50
2023-05-10T06:32:03.272Z,96049.50
2023-05-10T06:34:31.393Z,96024.22
2023-05-10T06:37:04.870Z,96030.44
2023-05-10T06:39:35.242Z,96027.16
2023-05-10T06:42:05.760Z,96029.19
2023-05-10T06:44:40.265Z,96035.66
2023-05-10T06:47:12.946Z,96012.09
2023-05-10T06:49:50.388Z,96031.13
2023-05-10T06:52:19.234Z,96029.00
2023-05-10T06:54:49.623Z,96033.31
2023-05-10T06:57:30.616Z,96035.22
2023-05-10T07:00:00.620Z,96034.88
2023-05-10T07:02:33.142Z,96047.47
2023-05-10T07:05:03.391Z,96041.38
2023-05-10T07:07:35.625Z,96037.03
2023-05-10T07:10:08.383Z,96030.63
2023-05-10T07:12:36.975Z,96031.91
2023-05-10T07:15:08.096Z,96033.50
2023-05-10T07:17:38.080Z,96035.19
2023-05-10T07:20:12.256Z,96040.09
2023-05-10T07:22:42.569Z,96032.78
2023-05-10T07:25:15.647Z,96028.22
2023-05-10T07:27:46.483Z,96038.03
2023-05-10T07:30:17.690Z,96041.69
2023-05-10T07:32:47.612Z,96036.97
2023-05-10T07:35:16.076Z,96046.63
2023-05-10T07:37:44.378Z,96011.63
2023-05-10T07:40:16.140Z,96040.06
2023-05-10T07:42:53.901Z,96049.75
2023-05-10T07:45:22.618Z,96032.00
2023-05-10T07:47:52.273Z,96046.47
2023-05-10T07:50:20.279Z,96042.19
2023-05-10T07:52:50.201Z,96047.81
2023-05-10T07:55:18.387Z,95905.53
2023-05-10T07:57:46.434Z,96021.25
2023-05-10T08:00:15.636Z,96060.13
2023-05-10T08:02:46.477Z,96044.38
2023-05-10T08:05:19.023Z,96048.94
2023-05-10T08:07:47.953Z,96055.25
2023-05-10T08:10:15.823Z,96055.59
2023-05-10T08:12:48.468Z,96045.56
2023-05-10T08:15:22.279Z,96056.94
2023-05-10T08:17:51.019Z,96037.56
2023-05-10T08:20:22.794Z,96066.97
2023-05-10T08:22:51.911Z,96058.34
2023-05-10T08:25:23.787Z,96066.66
2023-05-10T08:27:51.783Z,96060.47
2023-05-10T08:30:22.221Z,96071.03
2023-05-10T08:32:52.796Z,96019.09
2023-05-10T08:35:23.920Z,96034.50
2023-05-10T08:37:53.368Z,96074.25
2023-05-10T08:40:22.687Z,96021.22
2023-05-10T08:42:55.754Z,96067.47
2023-05-10T08:45:28.375Z,96051.38
2023-05-10T08:48:00.995Z,96073.91
2023-05-10T08:50:32.299Z,96074.31
2023-05-10T08:53:04.354Z,96061.50
2023-05-10T08:55:34.850Z,96076.03
2023-05-10T08:58:09.166Z,96078.63
2023-05-10T09:00:42.668Z,96073.72
2023-05-10T09:03:13.492Z,96073.44
2023-05-10T09:05:43.268Z,96083.41
2023-05-10T09:08:14.149Z,96082.97
2023-05-10T09:10:44.604Z,95901.56
2023-05-10T09:13:16.518Z,96093.13
2023-05-10T09:15:49.704Z,96093.78
2023-05-10T09:18:21.276Z,96063.25
2023-05-10T09:20:51.836Z,96089.41
2023-05-10T09:23:20.547Z,96091.91
2023-05-10T09:26:03.604Z,96091.63
2023-05-10T09:28:56.045Z,96093.78
2023-05-10T09:31:26.862Z,96078.28
2023-05-10T09:33:57.374Z,96095.97
2023-05-10T09:36:27.199Z,96099.78
2023-05-10T09:38:57.145Z,96109.56
2023-05-10T09:41:28.184Z,96088.50
2023-05-10T09:44:00.191Z,96110.41
2023-05-10T09:46:28.687Z,96099.97
2023-05-10T09:48:57.331Z,96108.88
2023-05-10T09:51:30.705Z,96115.19
2023-05-10T09:54:26.709Z,96066.59
2023-05-10T09:56:55.897Z,96100.44
2023-05-10T09:59:24.202Z,96065.56
2023-05-10T10:01:53.225Z,96084.00
2023-05-10T10:04:24.770Z,96108.94
2023-05-10T10:07:08.925Z,96107.34
2023-05-10T10:09:40.525Z,96111.72
2023-05-10T10:12:12.002Z,96118.00
2023-05-10T10:14:40.632Z,96114.91
2023-05-10T10:17:12.266Z,96118.59
2023-05-10T10:19:40.796Z,96069.06
2023-05-10T10:22:13.927Z,96129.78
2023-05-10T10:24:44.550Z,96130.72
2023-05-10T10:27:24.035Z,96111.16
2023-05-10T10:30:02.991Z,96117.75
2023-05-10T10:32:38.660Z,96124.19
2023-05-10T10:35:10.211Z,96114.44
2023-05-10T10:37:53.293Z,96110.44
2023-05-10T10:40:30.867Z,96027.00
2023-05-10T10:43:23.415Z,96114.38
2023-05-10T10:46:12.445Z,96112.16
2023-05-10T10:48:40.331Z,96113.59
2023-05-10T10:51:16.265Z,96081.44
2023-05-10T10:53:48.101Z,96110.94
2023-05-10T10:56:16.631Z,96070.75
2023-05-10T10:58:55.038Z,96109.84
2023-05-10T11:01:23.638Z,96062.38
2023-05-10T11:04:20.117Z,96121.50
2023-05-10T11:06:48.031Z,96121.03
2023-05-10T11:09:18.834Z,96119.09
2023-05-10T11:12:00.750Z,96115.31
2023-05-10T11:14:29.301Z,96125.75
2023-05-10T11:17:06.973Z,96124.34
2023-05-10T11:19:40.063Z,96106.13
2023-05-10T11:22:15.426Z,96118.59
2023-05-10T11:24:59.593Z,96108.09
2023-05-10T11:27:30.296Z,96130.09
2023-05-10T11:30:00.209Z,96107.31
2023-05-10T11:32:28.202Z,96131.19
2023-05-10T11:34:56.225Z,96122.53
2023-05-10T11:37:24.573Z,96121.41
2023-05-10T11:39:57.384Z,96119.09
2023-05-10T11:42:29.563Z,96119.34
2023-05-10T11:45:00.742Z,96124.16
2023-05-10T11:47:28.874Z,96128.69
2023-05-10T11:49:56.822Z,96081.88
2023-05-10T11:52:25.526Z,96132.19
2023-05-10T11:54:58.868Z,96123.47
2023-05-10T11:57:31.294Z,96128.44
2023-05-10T12:00:04.726Z,96115.88
2023-05-10T12:02:33.111Z,96116.44
2023-05-10T12:05:01.585Z,96092.00
2023-05-10T12:07:31.888Z,96140.88
2023-05-10T12:10:13.511Z,96151.84
2023-05-10T12:12:47.209Z,96154.34
2023-05-10T12:15:21.192Z,96136.94
2023-05-10T12:17:49.877Z,96119.59
2023-05-10T12:20:28.244Z,96159.31
2023-05-10T12:23:03.414Z,96116.44
2023-05-10T12:25:35.966Z,95944.56
2023-05-10T12:28:11.958Z,96131.19
2023-05-10T12:30:40.737Z,96142.84
2023-05-10T12:33:13.592Z,96143.88
2023-05-10T12:36:03.401Z,96132.00
2023-05-10T12:38:34.229Z,96089.94
2023-05-10T12:41:07.765Z,96137.81
2023-05-10T12:43:38.715Z,96154.38
2023-05-10T12:46:09.309Z,96153.28
2023-05-10T12:48:42.653Z,96138.06
2023-05-10T12:51:14.203Z,96141.25
2023-05-10T12:53:45.021Z,96148.31
2023-05-10T12:56:15.480Z,96152.97
2023-05-10T12:58:51.355Z,96144.56
2023-05-10T13:01:19.373Z,96141.81
2023-05-10T13:03:50.712Z,96144.00
2023-05-10T13:06:20.684Z,96138.53
2023-05-10T13:08:48.578Z,96141.06
2023-05-10T13:11:22.708Z,96095.47
2023-05-10T13:13:56.370Z,96142.25
2023-05-10T13:16:24.172Z,96130.66
2023-05-10T13:18:55.219Z,96136.09
2023-05-10T13:21:26.684Z,96135.59
2023-05-10T13:23:57.035Z,96119.88
2023-05-10T13:26:29.427Z,96141.91
2023-05-10T13:28:57.983Z,96140.47
2023-05-10T13:31:28.797Z,96141.06
2023-05-10T13:33:59.516Z,96135.59
2023-05-10T13:36:30.573Z,96134.56
2023-05-10T13:39:08.530Z,96086.97
2023-05-10T13:41:40.591Z,96132.84
2023-05-10T13:44:15.456Z,96124.78
2023-05-10T13:46:45.680Z,96129.91
2023-05-10T13:49:21.010Z,96129.72
2023-05-10T13:51:51.968Z,96125.47
2023-05-10T13:54:23.647Z,96120.41
2023-05-10T13:56:53.627Z,96130.81
2023-05-10T13:59:24.497Z,96122.69
2023-05-10T14:01:55.961Z,96133.03
2023-05-10T14:04:28.594Z,96099.19
2023-05-10T14:07:02.096Z,96071.50
2023-05-10T14:09:30.324Z,96136.25
2023-05-10T14:12:04.577Z,96129.31
2023-05-10T14:14:35.340Z,96133.59
2023-05-10T14:17:12.435Z,96126.44
2023-05-10T14:19:43.994Z,96105.13
2023-05-10T14:22:12.938Z,96125.19
2023-05-10T14:24:41.022Z,96115.22
2023-05-10T14:27:12.071Z,96111.78
2023-05-10T14:29:40.437Z,96117.06
2023-05-10T14:32:11.249Z,96102.22
2023-05-10T14:34:40.053Z,96114.50
2023-05-10T14:37:09.477Z,96112.78
2023-05-10T14:39:39.650Z,96120.53
2023-05-10T14:42:07.755Z,96117.78
2023-05-10T14:44:37.729Z,96112.47
2023-05-10T14:47:06.780Z,96114.59
2023-05-10T14:49:36.157Z,96115.22
2023-05-10T14:52:06.677Z,96089.34
2023-05-10T14:54:35.628Z,96113.38
2023-05-10T14:57:04.096Z,96084.66
2023-05-10T14:59:32.152Z,96110.34
2023-05-10T15:02:05.285Z,96118.00
2023-05-10T15:04:35.013Z,96116.69
2023-05-10T15:07:03.652Z,96115.00
2023-05-10T15:09:34.273Z,96115.03
2023-05-10T15:12:02.422Z,96110.63
2023-05-10T15:14:31.423Z,96119.81
2023-05-10T15:17:08.391Z,96116.91
2023-05-10T15:19:38.285Z,96070.63
2023-05-10T15:22:06.760Z,96085.63
2023-05-10T15:24:36.219Z,96092.09
2023-05-10T15:27:04.172Z,96108.03
2023-05-10T15:29:32.831Z,96111.91
2023-05-10T15:32:04.196Z,96102.19
2023-05-10T15:34:34.846Z,96099.16
2023-05-10T15:37:06.520Z,96119.59
2023-05-10T15:39:35.088Z,96119.41
2023-05-10T15:42:05.155Z,96113.81
2023-05-10T15:44:36.383Z,96121.06
2023-05-10T15:47:09.669Z,96122.03
2023-05-10T15:49:40.798Z,96122.75
2023-05-10T15:52:12.761Z,96131.41
2023-05-10T15:54:47.015Z,96121.63
2023-05-10T15:57:22.322Z,96134.16
2023-05-10T15:59:51.173Z,96125.94
2023-05-10T16:02:22.576Z,96131.59
2023-05-10T16:04:57.584Z,96131.72
2023-05-10T16:07:27.583Z,96125.63
2023-05-10T16:09:55.984Z,96128.56
2023-05-10T16:12:23.896Z,96128.91
2023-05-10T16:14:54.314Z,96132.41
2023-05-10T16:17:22.895Z,96132.94
2023-05-10T16:19:51.168Z,96133.59
2023-05-10T16:22:27.579Z,96137.59
2023-05-10T16:25:01.889Z,96141.38
2023-05-10T16:27:36.964Z,96140.28
2023-05-10T16:30:06.318Z,96144.06
2023-05-10T16:32:34.268Z,96150.22
2023-05-10T16:35:02.646Z,96147.28
2023-05-10T16:37:33.895Z,96150.09
2023-05-10T16:40:04.165Z,96157.06
2023-05-10T16:42:34.234Z,96162.91
2023-05-10T16:45:07.833Z,96160.00
2023-05-10T16:47:43.629Z,96164.00
2023-05-10T16:50:11.819Z,96143.84
2023-05-10T16:52:39.978Z,96160.97
2023-05-10T16:55:15.619Z,96163.03
2023-05-10T16:57:55.783Z,96161.25
2023-05-10T17:00:33.162Z,96159.13
2023-05-10T17:03:11.191Z,96153.13
2023-05-10T17:05:39.480Z,96159.94
2023-05-10T17:08:07.683Z,96166.38
2023-05-10T17:10:42.238Z,96138.13
2023-05-10T17:13:12.275Z,96164.50
2023-05-10T17:15:40.604Z,96153.75
2023-05-10T17:18:10.170Z,96173.31
2023-05-10T17:20:38.322Z,96169.28
2023-05-10T17:23:08.408Z,96173.44
2023-05-10T17:25:42.376Z,96115.72
2023-05-10T17:28:11.765Z,96177.47
2023-05-10T17:30:39.541Z,96184.88
2023-05-10T17:33:09.576Z,96186.00
2023-05-10T17:35:40.628Z,96180.09
2023-05-10T17:38:08.887Z,96188.78
2023-05-10T17:40:42.018Z,96189.97
2023-05-10T17:43:10.276Z,96191.19
2023-05-10T17:45:38.090Z,96187.66
2023-05-10T17:48:07.484Z,96194.41
2023-05-10T17:50:41.804Z,96186.59
2023-05-10T17:53:09.836Z,96198.56
2023-05-10T17:55:44.148Z,96187.88
2023-05-10T17:58:13.163Z,96182.56
2023-05-10T18:00:41.852Z,96207.06
2023-05-10T18:03:10.219Z,96145.00
2023-05-10T18:05:40.864Z,96195.09
2023-05-10T18:08:09.336Z,96203.59
2023-05-10T18:10:41.748Z,96203.09
2023-05-10T18:13:09.866Z,96202.09
2023-05-10T18:15:44.076Z,96158.63
2023-05-10T18:18:12.754Z,96196.69
2023-05-10T18:20:58.803Z,96204.19
2023-05-10T18:23:29.996Z,96212.16
2023-05-10T18:26:03.761Z,96201.44
2023-05-10T18:28:32.113Z,96211.22
2023-05-10T18:30:59.989Z,96209.94
2023-05-10T18:33:27.856Z,96207.25
2023-05-10T18:36:06.265Z,96208.94
2023-05-10T18:38:37.786Z,96185.09
2023-05-10T18:41:08.879Z,96215.13
2023-05-10T18:43:38.353Z,96209.91
2023-05-10T18:46:11.752Z,96210.97
2023-05-10T18:48:40.799Z,96209.78
2023-05-10T18:51:08.643Z,96214.66
2023-05-10T18:53:41.903Z,96212.00
2023-05-10T18:56:15.698Z,96217.97
2023-05-10T18:58:43.480Z,96214.19
2023-05-10T19:01:13.774Z,96212.66
2023-05-10T19:03:43.520Z,96196.53
2023-05-10T19:06:12.746Z,96210.56
2023-05-10T19:08:45.589Z,96210.06
2023-05-10T19:11:16.854Z,96213.50
2023-05-10T19:13:47.762Z,95992.28
2023-05-10T19:16:20.229Z,96223.31
2023-05-10T19:18:49.445Z,96226.13
2023-05-10T19:21:24.204Z,96232.56
2023-05-10T19:23:52.776Z,96194.19
2023-05-10T19:26:25.291Z,96231.44
2023-05-10T19:28:53.425Z,96244.88
2023-05-10T19:31:27.019Z,96239.94
2023-05-10T19:34:00.516Z,96237.34
2023-05-10T19:36:28.750Z,96239.66
2023-05-10T19:38:57.556Z,96243.44
2023-05-10T19:41:27.440Z,96249.72
2023-05-10T19:43:58.078Z,96237.03
2023-05-10T19:46:26.190Z,96252.22
2023-05-10T19:48:54.058Z,96250.66
2023-05-10T19:51:22.401Z,96249.66
2023-05-10T19:53:50.563Z,96247.13
2023-05-10T19:56:19.471Z,96243.34
2023-05-10T19:58:48.943Z,96257.50
2023-05-10T20:01:17.120Z,96241.81
2023-05-10T20:03:45.336Z,96255.41
2023-05-10T20:06:16.596Z,96223.16
2023-05-10T20:08:46.710Z,96248.38
2023-05-10T20:11:15.311Z,96256.53
2023-05-10T20:13:45.933Z,96261.53
2023-05-10T20:16:20.038Z,96257.78
2023-05-10T20:18:53.684Z,96232.19
2023-05-10T20:21:28.595Z,96259.06
2023-05-10T20:23:56.699Z,96258.66
2023-05-10T20:26:25.336Z,96222.84
2023-05-10T20:28:54.177Z,96253.50
2023-05-10T20:31:25.627Z,96254.06
2023-05-10T20:33:58.311Z,96259.50
2023-05-10T20:36:26.542Z,96260.13
2023-05-10T20:38:54.719Z,96239.34
2023-05-10T20:41:26.119Z,96254.22
2023-05-10T20:43:53.994Z,96244.09
2023-05-10T20:46:26.581Z,96246.38
2023-05-10T20:48:58.996Z,96243.72
2023-05-10T20:51:27.297Z,96234.09
2023-05-10T20:54:01.801Z,96241.84
2023-05-10T20:56:29.576Z,96247.47
2023-05-10T20:58:57.788Z,96241.97
2023-05-10T21:01:31.993Z,96234.56
2023-05-10T21:04:00.523Z,96241.00
2023-05-10T21:06:31.400Z,96251.78
2023-05-10T21:08:59.838Z,96239.75
2023-05-10T21:11:28.556Z,96243.47
2023-05-10T21:13:56.657Z,96229.81
2023-05-10T21:16:28.294Z,96249.66
2023-05-10T21:18:57.688Z,96244.47
2023-05-10T21:21:27.942Z,96245.81
2023-05-10T21:23:56.501Z,96239.50
2023-05-10T21:26:25.016Z,96250.25
2023-05-10T21:28:53.595Z,96251.59
2023-05-10T21:31:21.670Z,96246.50
2023-05-10T21:33:53.499Z,96242.69
2023-05-10T21:36:23.295Z,96240.81
2023-05-10T21:38:51.879Z,96241.06
2023-05-10T21:41:22.461Z,96240.50
2023-05-10T21:43:52.637Z,96253.69
2023-05-10T21:46:20.599Z,96250.97
2023-05-10T21:48:57.978Z,96250.13
2023-05-10T21:51:25.838Z,96247.19
2023-05-10T21:53:56.394Z,96246.41
2023-05-10T21:56:27.019Z,96249.78
2023-05-10T21:58:55.687Z,96241.41
2023-05-10T22:01:26.929Z,96227.47
2023-05-10T22:03:56.932Z,96240.09
2023-05-10T22:06:28.614Z,96245.41
2023-05-10T22:09:01.321Z,96243.72
2023-05-10T22:11:28.998Z,96246.63
2023-05-10T22:13:59.907Z,96240.41
2023-05-10T22:16:27.823Z,96234.69
2023-05-10T22:18:57.194Z,96236.22
2023-05-10T22:21:24.983Z,96250.69
2023-05-10T22:23:52.767Z,96239.53
2023-05-10T22:26:21.555Z,96239.13
2023-05-10T22:28:49.481Z,96241.47
2023-05-10T22:31:20.080Z,96237.31
2023-05-10T22:33:49.093Z,96237.81
2023-05-10T22:36:19.004Z,96241.25
2023-05-10T22:38:49.183Z,96235.69
2023-05-10T22:41:21.320Z,96241.03
2023-05-10T22:43:50.009Z,96238.41
2023-05-10T22:46:17.864Z,96240.03
2023-05-10T22:48:45.922Z,96197.03
2023-05-10T22:51:13.777Z,96240.75
2023-05-10T22:53:46.733Z,96238.69
2023-05-10T22:56:16.655Z,96240.47
2023-05-10T22:58:47.703Z,96216.41
2023-05-10T23:01:15.939Z,96236.59
2023-05-10T23:03:48.976Z,96231.03
2023-05-10T23:06:18.656Z,96263.75
2023-05-10T23:08:49.732Z,96231.03
2023-05-10T23:11:18.811Z,96237.41
2023-05-10T23:13:48.623Z,96241.19
2023-05-10T23:16:19.871Z,96232.75
2023-05-10T23:18:48.829Z,96237.19
2023-05-10T23:21:17.506Z,96229.69
2023-05-10T23:23:45.422Z,96249.38
2023-05-10T23:26:16.558Z,96227.31
2023-05-10T23:28:45.311Z,96243.81
2023-05-10T23:31:16.638Z,96238.09
2023-05-10T23:33:48.453Z,96242.50
2023-05-10T23:36:17.013Z,96254.56
2023-05-10T23:38:44.934Z,96228.13
2023-05-10T23:41:16.540Z,96235.13
2023-05-10T23:43:44.612Z,96150.00
2023-05-10T23:46:19.083Z,96230.84
2023-05-10T23:48:47.029Z,96240.38
2023-05-10T23:51:20.687Z,96245.34
2023-05-10T23:53:48.414Z,96237.72
2023-05-10T23:56:19.507Z,96244.59
2023-05-10T23:58:47.729Z,96238.50
